Time;durP1;ratioP1;P1;durP2;ratioP2;P2;SDS_P1;SDS_P2;PMS_P1;PMS_P2;Temp;Humidity;BMP_temperature;BMP_pressure;BME280_temperature;BME280_humidity;BME280_pressure;Samples;Min_cycle;Max_cycle;Signal;HPM_P1;HPM_P2
2023/01/10 00:00:34;;;;;;;14.93;2.83;;;;;;;-145.18;100.00;46685.78;6152460;23;20232;-80
2023/01/10 00:03:03;;;;;;;21.93;2.80;;;;;;;-145.18;100.00;46691.66;6151505;23;20002;-80
2023/01/10 00:05:29;;;;;;;14.57;2.53;;;;;;;-145.18;100.00;46699.47;6154179;23;20255;-80
2023/01/10 00:07:54;;;;;;;21.87;2.57;;;;;;;-145.18;100.00;46703.38;6153908;23;20721;-80
2023/01/10 00:10:20;;;;;;;15.87;2.60;;;;;;;-145.18;100.00;46699.47;6154297;23;20316;-80
2023/01/10 00:15:36;;;;;;;18.33;3.83;;;;;;;-145.18;100.00;46705.31;6153951;23;20020;-80
2023/01/10 00:18:02;;;;;;;18.93;2.23;;;;;;;-145.18;100.00;46705.31;6153734;23;20274;-80
2023/01/10 00:20:27;;;;;;;21.07;2.30;;;;;;;-145.18;100.00;46705.31;6154372;23;20236;-80
2023/01/10 00:22:52;;;;;;;16.87;2.10;;;;;;;-145.18;100.00;46705.31;6153729;23;20083;-80
2023/01/10 00:25:20;;;;;;;20.17;2.40;;;;;;;-145.18;100.00;46703.38;6153970;23;20016;-80
2023/01/10 00:27:48;;;;;;;15.73;2.20;;;;;;;-145.18;100.00;46703.38;6153525;23;20466;-80
2023/01/10 00:30:14;;;;;;;22.90;3.30;;;;;;;-145.18;100.00;46697.50;6153940;23;20267;-80
2023/01/10 00:32:44;;;;;;;23.63;3.27;;;;;;;-145.18;100.00;46697.50;6153704;23;20576;-80
2023/01/10 00:35:11;;;;;;;16.07;2.03;;;;;;;-145.18;100.00;46699.47;6154276;23;20216;-79
2023/01/10 00:37:37;;;;;;;21.00;2.10;;;;;;;-145.18;100.00;46697.50;6153625;23;20670;-79
2023/01/10 00:40:07;;;;;;;20.17;2.07;;;;;;;-145.18;100.00;46701.41;6153916;23;20719;-80
2023/01/10 00:45:18;;;;;;;16.70;2.30;;;;;;;-145.18;100.00;46719.00;6153789;23;20708;-78
2023/01/10 00:47:44;;;;;;;22.80;2.87;;;;;;;-145.18;100.00;46724.84;6153701;23;20227;-78
2023/01/10 00:50:10;;;;;;;16.83;2.03;;;;;;;-145.18;100.00;46736.56;6152470;23;20243;-78
2023/01/10 00:52:35;;;;;;;30.07;2.47;;;;;;;-145.18;100.00;46728.75;6151960;23;20088;-78
2023/01/10 00:55:01;;;;;;;18.93;2.67;;;;;;;-145.18;100.00;46728.75;6153673;23;20673;-78
2023/01/10 00:57:26;;;;;;;10.57;2.00;;;;;;;-145.18;100.00;46734.63;6151672;23;20021;-78
2023/01/10 00:59:52;;;;;;;18.00;2.60;;;;;;;-145.18;100.00;46724.84;6153428;23;20017;-78
2023/01/10 01:02:17;;;;;;;18.77;2.67;;;;;;;-145.18;100.00;46726.81;6153292;23;20435;-78
2023/01/10 01:04:42;;;;;;;16.33;3.10;;;;;;;-145.18;100.00;46732.66;6153693;23;20468;-78
2023/01/10 01:07:08;;;;;;;14.83;3.20;;;;;;;-145.18;100.00;46726.81;6153384;23;20009;-78
2023/01/10 01:09:33;;;;;;;12.57;2.90;;;;;;;-145.18;100.00;46724.84;6153638;23;20097;-77
2023/01/10 01:11:58;;;;;;;28.67;4.50;;;;;;;-145.18;100.00;46722.91;6153212;23;20041;-78
2023/01/10 01:14:24;;;;;;;21.87;2.53;;;;;;;-145.18;100.00;46724.84;6153686;23;20076;-77
2023/01/10 01:16:50;;;;;;;23.80;2.83;;;;;;;-145.18;100.00;46724.84;6153017;23;20006;-77
2023/01/10 01:19:16;;;;;;;22.97;2.40;;;;;;;-145.18;100.00;46724.84;6153547;23;20006;-77
2023/01/10 01:21:41;;;;;;;17.43;2.00;;;;;;;-145.18;100.00;46720.94;6152006;23;20084;-77
2023/01/10 01:24:09;;;;;;;15.87;2.53;;;;;;;-145.18;100.00;46720.94;6153492;23;20018;-77
2023/01/10 01:26:34;;;;;;;25.27;3.43;;;;;;;-145.18;100.00;46724.84;6153330;23;20013;-77
2023/01/10 01:29:00;;;;;;;16.70;2.40;;;;;;;-145.18;100.00;46722.91;6153262;23;20624;-77
2023/01/10 01:31:25;;;;;;;25.13;3.03;;;;;;;-145.18;100.00;46724.84;6153274;23;20064;-77
2023/01/10 01:33:51;;;;;;;20.27;2.80;;;;;;;-145.18;100.00;46720.94;6153433;23;20044;-76
2023/01/10 01:36:16;;;;;;;23.07;3.20;;;;;;;-145.18;100.00;46720.94;6153516;23;20018;-77
2023/01/10 01:38:41;;;;;;;16.23;1.80;;;;;;;-145.18;100.00;46719.00;6153223;23;20005;-76
2023/01/10 01:41:55;;;;;;;23.80;3.37;;;;;;;-145.18;100.00;46719.00;6153033;23;20010;-77
2023/01/10 01:44:31;;;;;;;21.05;2.75;;;;;;;-145.18;100.00;46724.84;6152797;23;20009;-76
2023/01/10 01:47:08;;;;;;;21.83;1.80;;;;;;;-145.18;100.00;46720.94;6106674;23;20008;-77
2023/01/10 01:49:39;;;;;;;14.67;2.87;;;;;;;-145.18;100.00;46724.84;6152047;23;20259;-76
2023/01/10 01:52:08;;;;;;;15.80;2.07;;;;;;;-145.18;100.00;46722.91;6152898;23;20230;-77
2023/01/10 01:54:34;;;;;;;20.40;3.00;;;;;;;-145.18;100.00;46724.84;6153287;23;20254;-77
2023/01/10 01:57:05;;;;;;;21.47;3.37;;;;;;;-145.18;100.00;46722.91;6152401;23;20657;-76
2023/01/10 01:59:43;;;;;;;14.27;2.67;;;;;;;-145.18;100.00;46726.81;6153327;23;20017;-77
2023/01/10 02:02:15;;;;;;;21.43;2.57;;;;;;;-145.18;100.00;46724.84;6152683;23;20285;-77
2023/01/10 02:04:52;;;;;;;25.10;2.50;;;;;;;-145.18;100.00;46722.91;6153061;23;20256;-76
2023/01/10 02:07:18;;;;;;;12.63;3.37;;;;;;;-145.18;100.00;46724.84;6152671;23;20258;-77
2023/01/10 02:10:00;;;;;;;18.30;2.70;;;;;;;-145.18;100.00;46724.84;6153252;23;20259;-76
2023/01/10 02:12:28;;;;;;;19.00;3.13;;;;;;;-145.18;100.00;46720.94;6151297;23;20250;-77
2023/01/10 02:14:54;;;;;;;20.33;2.93;;;;;;;-145.18;100.00;46722.91;6152684;23;20592;-77
2023/01/10 02:17:20;;;;;;;17.93;2.70;;;;;;;-145.18;100.00;46720.94;6152692;23;20239;-77
2023/01/10 02:19:56;;;;;;;14.63;2.00;;;;;;;-145.18;100.00;46726.81;6153168;23;20247;-77
2023/01/10 02:23:09;;;;;;;17.83;2.13;;;;;;;-145.18;100.00;46722.91;6152733;23;20423;-77
2023/01/10 02:26:25;;;;;;;15.50;2.13;;;;;;;-145.18;100.00;46722.91;6062356;23;20221;-77
2023/01/10 02:29:28;;;;;;;15.90;2.60;;;;;;;-145.18;100.00;46724.84;6153126;23;20232;-77
2023/01/10 02:32:12;;;;;;;17.30;2.50;;;;;;;-145.18;100.00;46724.84;6152465;23;20681;-76
2023/01/10 02:35:06;;;;;;;21.70;3.57;;;;;;;-145.18;100.00;46719.00;6152679;23;20246;-77
2023/01/10 02:37:51;;;;;;;17.67;4.20;;;;;;;-145.18;100.00;46722.91;6110562;23;20240;-77
2023/01/10 02:40:30;;;;;;;18.00;3.00;;;;;;;-145.18;100.00;46720.94;6152894;23;20286;-77
2023/01/10 02:43:18;;;;;;;17.83;2.77;;;;;;;-145.18;100.00;46722.91;6152086;23;20755;-77
2023/01/10 02:45:58;;;;;;;20.00;3.57;;;;;;;-145.18;100.00;46720.94;6153059;23;20543;-77
2023/01/10 02:48:23;;;;;;;16.33;2.50;;;;;;;-145.18;100.00;46722.91;6152572;23;20298;-77
2023/01/10 02:50:55;;;;;;;18.17;3.17;;;;;;;-145.18;100.00;46726.81;6152689;23;20690;-77
2023/01/10 02:53:28;;;;;;;14.03;2.90;;;;;;;-145.18;100.00;46722.91;6152419;23;20001;-77
2023/01/10 02:55:53;;;;;;;15.83;3.53;;;;;;;-145.18;100.00;46720.94;6152315;23;20236;-77
2023/01/10 02:58:21;;;;;;;24.03;3.23;;;;;;;-145.18;100.00;46722.91;6151895;23;20271;-77
2023/01/10 03:03:34;;;;;;;25.08;3.42;;;;;;;-145.18;100.00;46722.91;6140869;22;20306;-78
2023/01/10 03:06:30;;;;;;;19.83;2.67;;;;;;;-145.18;100.00;46719.00;6151636;23;20018;-77
2023/01/10 03:09:15;;;;;;;22.08;3.00;;;;;;;-145.18;100.00;46720.94;6151545;23;20684;-78
2023/01/10 03:11:43;;;;;;;20.90;3.17;;;;;;;-145.18;100.00;46722.91;6152397;23;20016;-78
2023/01/10 03:14:23;;;;;;;19.47;2.83;;;;;;;-145.18;100.00;46722.91;6151752;23;20240;-79
2023/01/10 03:16:55;;;;;;;14.43;2.93;;;;;;;-145.18;100.00;46720.94;6152380;23;20858;-78
2023/01/10 03:19:23;;;;;;;30.63;3.73;;;;;;;-145.18;100.00;46724.84;6152485;23;20396;-78
2023/01/10 03:21:52;;;;;;;17.10;3.00;;;;;;;-145.18;100.00;46724.84;6152425;23;20224;-78
2023/01/10 03:24:27;;;;;;;20.90;3.10;;;;;;;-145.18;100.00;46728.75;6151808;23;20759;-78
2023/01/10 03:26:57;;;;;;;19.53;3.20;;;;;;;-145.18;100.00;46724.84;6152124;23;20284;-78
2023/01/10 03:29:36;;;;;;;18.37;3.07;;;;;;;-145.18;100.00;46720.94;6152168;23;20306;-79
2023/01/10 03:32:06;;;;;;;31.53;4.40;;;;;;;-145.18;100.00;46724.84;6151846;23;20224;-78
2023/01/10 03:34:33;;;;;;;17.43;3.60;;;;;;;-145.18;100.00;46724.84;6152529;23;20224;-78
2023/01/10 03:37:13;;;;;;;22.63;4.27;;;;;;;-145.18;100.00;46728.75;6151741;23;20236;-78
2023/01/10 03:39:53;;;;;;;23.33;3.37;;;;;;;-145.18;100.00;46724.84;6151868;23;20977;-78
2023/01/10 03:45:42;;;;;;;21.27;3.33;;;;;;;-145.18;100.00;46720.94;6152363;23;20227;-79
2023/01/10 03:48:10;;;;;;;17.87;2.50;;;;;;;-145.18;100.00;46724.84;6151679;23;20248;-78
2023/01/10 03:50:38;;;;;;;22.70;3.17;;;;;;;-145.18;100.00;46722.91;6151975;23;20283;-78
2023/01/10 03:53:05;;;;;;;29.50;4.87;;;;;;;-145.18;100.00;46722.91;6151927;23;20228;-78
2023/01/10 03:55:32;;;;;;;26.53;3.23;;;;;;;-145.18;100.00;46720.94;6152372;23;20652;-79
2023/01/10 03:57:57;;;;;;;20.80;3.30;;;;;;;-145.18;100.00;46724.84;6151655;23;20235;-78
2023/01/10 04:00:24;;;;;;;21.07;2.43;;;;;;;-145.18;100.00;46722.91;6152195;23;20255;-78
2023/01/10 04:02:50;;;;;;;21.47;2.97;;;;;;;-145.18;100.00;46720.94;6151702;23;20018;-78
2023/01/10 04:05:15;;;;;;;20.30;3.13;;;;;;;-145.18;100.00;46722.91;6151650;23;20242;-78
2023/01/10 04:07:41;;;;;;;22.23;3.53;;;;;;;-145.18;100.00;46719.00;6151859;23;20084;-78
2023/01/10 04:10:07;;;;;;;16.67;3.20;;;;;;;-145.18;100.00;46720.94;6152367;23;20044;-78
2023/01/10 04:12:33;;;;;;;27.87;3.67;;;;;;;-145.18;100.00;46720.94;6150262;23;20005;-78
2023/01/10 04:15:00;;;;;;;28.27;3.10;;;;;;;-145.18;100.00;46720.94;6151827;23;20232;-78
2023/01/10 04:17:25;;;;;;;25.10;4.27;;;;;;;-145.18;100.00;46719.00;6151889;23;20010;-78
2023/01/10 04:19:51;;;;;;;32.00;3.30;;;;;;;-145.18;100.00;46720.94;6152089;23;20260;-79
2023/01/10 04:22:16;;;;;;;21.43;2.83;;;;;;;-145.18;100.00;46722.91;6150127;23;20021;-78
2023/01/10 04:24:43;;;;;;;26.37;4.27;;;;;;;-145.18;100.00;46726.81;6152475;23;20008;-78
2023/01/10 04:27:09;;;;;;;31.90;5.07;;;;;;;-145.18;100.00;46722.91;6151475;23;20012;-78
2023/01/10 04:29:35;;;;;;;24.43;3.93;;;;;;;-145.18;100.00;46722.91;6152176;23;20681;-78
2023/01/10 04:32:00;;;;;;;35.17;5.17;;;;;;;-145.18;100.00;46724.84;6151814;23;20241;-78
2023/01/10 04:34:25;;;;;;;18.50;2.80;;;;;;;-145.18;100.00;46724.84;6152190;23;20620;-78
2023/01/10 04:36:51;;;;;;;27.47;3.60;;;;;;;-145.18;100.00;46726.81;6152136;23;20036;-78
2023/01/10 04:39:16;;;;;;;33.73;4.53;;;;;;;-145.18;100.00;46720.94;6151210;23;20020;-78
2023/01/10 04:41:41;;;;;;;32.97;4.00;;;;;;;-145.18;100.00;46726.81;6150323;23;20017;-78
2023/01/10 04:44:07;;;;;;;27.33;4.07;;;;;;;-145.18;100.00;46726.81;6151573;23;20416;-79
2023/01/10 04:46:33;;;;;;;29.13;3.03;;;;;;;-145.18;100.00;46726.81;6151999;23;20081;-79
2023/01/10 04:48:58;;;;;;;29.03;3.57;;;;;;;-145.18;100.00;46726.81;6149873;23;20497;-78
2023/01/10 04:51:27;;;;;;;36.40;4.30;;;;;;;-145.18;100.00;46726.81;6153117;23;20008;-78
2023/01/10 04:53:53;;;;;;;28.23;4.13;;;;;;;-145.18;100.00;46732.66;6153169;23;20304;-79
2023/01/10 04:56:21;;;;;;;28.30;4.13;;;;;;;-145.18;100.00;46722.91;6153779;23;20282;-78
2023/01/10 04:58:48;;;;;;;29.23;3.77;;;;;;;-145.18;100.00;46726.81;6150039;23;20037;-78
2023/01/10 05:01:19;;;;;;;36.53;5.20;;;;;;;-145.18;100.00;46726.81;6151714;23;20235;-78
2023/01/10 05:03:49;;;;;;;27.03;4.70;;;;;;;-145.18;100.00;46724.84;6152764;23;20719;-78
2023/01/10 05:06:15;;;;;;;26.80;5.23;;;;;;;-145.18;100.00;46726.81;6152784;23;21034;-78
2023/01/10 05:08:41;;;;;;;27.00;4.77;;;;;;;-145.18;100.00;46724.84;6151337;23;20700;-79
2023/01/10 05:11:06;;;;;;;38.30;4.70;;;;;;;-145.18;100.00;46722.91;6152614;23;20275;-78
2023/01/10 05:13:32;;;;;;;31.67;4.10;;;;;;;-145.18;100.00;46726.81;6152855;23;20366;-79
2023/01/10 05:15:58;;;;;;;26.83;4.37;;;;;;;-145.18;100.00;46726.81;6153147;23;20481;-79
2023/01/10 05:18:25;;;;;;;26.87;3.60;;;;;;;-145.18;100.00;46724.84;6152984;23;20013;-79
2023/01/10 05:20:50;;;;;;;27.23;3.60;;;;;;;-145.18;100.00;46726.81;6152965;23;20002;-79
2023/01/10 05:23:15;;;;;;;30.43;5.07;;;;;;;-145.18;100.00;46726.81;6152851;23;20240;-80
2023/01/10 05:25:41;;;;;;;34.80;4.37;;;;;;;-145.18;100.00;46728.75;6151650;23;20013;-79
2023/01/10 05:28:07;;;;;;;33.13;5.70;;;;;;;-145.18;100.00;46732.66;6152699;23;20068;-80
2023/01/10 05:30:32;;;;;;;31.93;4.13;;;;;;;-145.18;100.00;46732.66;6152884;23;20032;-79
2023/01/10 05:32:58;;;;;;;30.27;4.73;;;;;;;-145.18;100.00;46724.84;6151024;23;20018;-79
2023/01/10 05:35:23;;;;;;;33.37;6.03;;;;;;;-145.18;100.00;46722.91;6153580;23;20010;-80
2023/01/10 05:37:49;;;;;;;27.80;5.03;;;;;;;-145.18;100.00;46732.66;6153384;23;20009;-80
2023/01/10 05:40:14;;;;;;;33.80;4.63;;;;;;;-145.18;100.00;46722.91;6152963;23;20024;-79
2023/01/10 05:42:40;;;;;;;37.00;4.87;;;;;;;-145.18;100.00;46726.81;6151704;23;20009;-79
2023/01/10 05:45:06;;;;;;;41.30;6.23;;;;;;;-145.18;100.00;46726.81;6153260;23;20032;-80
2023/01/10 05:47:31;;;;;;;27.37;4.03;;;;;;;-145.18;100.00;46726.81;6152994;23;20573;-79
2023/01/10 05:49:57;;;;;;;28.07;4.07;;;;;;;-145.18;100.00;46724.84;6152744;23;20427;-79
2023/01/10 05:52:22;;;;;;;27.70;4.77;;;;;;;-145.18;100.00;46726.81;6151632;23;20029;-79
2023/01/10 05:54:47;;;;;;;37.47;5.40;;;;;;;-145.18;100.00;46726.81;6153350;23;20009;-80
2023/01/10 05:57:13;;;;;;;28.87;4.40;;;;;;;-145.18;100.00;46732.66;6153045;23;20014;-80
2023/01/10 05:59:38;;;;;;;37.53;6.30;;;;;;;-145.18;100.00;46726.81;6153029;23;20096;-80
2023/01/10 06:02:04;;;;;;;32.07;4.63;;;;;;;-145.18;100.00;46732.66;6154161;23;20088;-80
2023/01/10 06:04:29;;;;;;;26.30;4.30;;;;;;;-145.18;100.00;46726.81;6153809;23;20028;-80
2023/01/10 06:06:54;;;;;;;20.50;3.87;;;;;;;-145.18;100.00;46726.81;6153055;23;20499;-79
2023/01/10 06:09:20;;;;;;;27.43;4.70;;;;;;;-145.18;100.00;46726.81;6152754;23;20009;-79
2023/01/10 06:11:45;;;;;;;28.47;4.47;;;;;;;-145.18;100.00;46722.91;6149774;23;20014;-80
2023/01/10 06:14:10;;;;;;;34.60;4.30;;;;;;;-145.18;100.00;46728.75;6151260;23;20439;-80
2023/01/10 06:16:36;;;;;;;36.80;5.07;;;;;;;-145.18;100.00;46728.75;6152475;23;20048;-80
2023/01/10 06:19:01;;;;;;;26.87;4.70;;;;;;;-145.18;100.00;46726.81;6150264;23;20010;-79
2023/01/10 06:21:26;;;;;;;32.57;4.10;;;;;;;-145.18;100.00;46726.81;6151818;23;20005;-80
2023/01/10 06:23:52;;;;;;;41.53;5.87;;;;;;;-145.18;100.00;46728.75;6152432;23;20016;-79
2023/01/10 06:26:17;;;;;;;35.97;4.93;;;;;;;-145.18;100.00;46728.75;6126162;23;20021;-79
2023/01/10 06:28:43;;;;;;;34.97;5.20;;;;;;;-145.18;100.00;46726.81;6152567;23;20013;-79
2023/01/10 06:31:09;;;;;;;30.90;5.53;;;;;;;-145.18;100.00;46726.81;6152351;23;20018;-79
2023/01/10 06:33:34;;;;;;;42.37;6.23;;;;;;;-145.18;100.00;46732.66;6152569;23;20025;-80
2023/01/10 06:36:00;;;;;;;39.27;5.37;;;;;;;-145.18;100.00;46728.75;6151847;23;20017;-80
2023/01/10 06:38:25;;;;;;;29.83;4.93;;;;;;;-145.18;100.00;46728.75;6152570;23;20014;-80
2023/01/10 06:40:51;;;;;;;32.17;5.40;;;;;;;-145.18;100.00;46726.81;6126168;23;20009;-80
2023/01/10 06:43:16;;;;;;;45.27;7.03;;;;;;;-145.18;100.00;46726.81;6147967;23;20594;-80
2023/01/10 06:45:42;;;;;;;38.10;8.20;;;;;;;-145.18;100.00;46720.94;6150540;23;20013;-80
2023/01/10 06:48:07;;;;;;;42.27;6.17;;;;;;;-145.18;100.00;46728.75;6150577;23;20017;-80
2023/01/10 06:50:32;;;;;;;24.03;5.10;;;;;;;-145.18;100.00;46722.91;6149775;23;20036;-80
2023/01/10 06:53:00;;;;;;;22.97;4.60;;;;;;;-145.18;100.00;46720.94;6149943;23;20032;-80
2023/01/10 06:55:26;;;;;;;32.57;5.63;;;;;;;-145.18;100.00;46722.91;6151203;23;20009;-80
2023/01/10 06:58:00;;;;;;;32.93;6.37;;;;;;;-145.18;100.00;46720.94;6150696;23;20294;-80
2023/01/10 07:00:27;;;;;;;32.27;5.80;;;;;;;-145.18;100.00;46724.84;6150978;23;20251;-80
2023/01/10 07:02:56;;;;;;;35.13;5.50;;;;;;;-145.18;100.00;46722.91;6152962;23;20257;-80
2023/01/10 07:05:22;;;;;;;34.40;5.60;;;;;;;-145.18;100.00;46720.94;6180466;23;20635;-80
2023/01/10 07:07:47;;;;;;;29.37;6.17;;;;;;;-145.18;100.00;46719.00;6179218;23;20235;-80
2023/01/10 07:10:13;;;;;;;34.67;6.30;;;;;;;-145.18;100.00;46720.94;6178641;23;20086;-80
2023/01/10 07:12:38;;;;;;;26.33;6.00;;;;;;;-145.18;100.00;46717.03;6179606;23;20009;-80
2023/01/10 07:15:04;;;;;;;34.23;6.57;;;;;;;-145.18;100.00;46722.91;6179848;23;20438;-80
2023/01/10 07:17:29;;;;;;;41.00;6.73;;;;;;;-145.18;100.00;46720.94;6181603;23;20020;-80
2023/01/10 07:19:55;;;;;;;40.23;6.07;;;;;;;-145.18;100.00;46719.00;6181605;23;20016;-80
2023/01/10 07:22:20;;;;;;;29.73;6.60;;;;;;;-145.18;100.00;46720.94;6155009;23;20016;-80
2023/01/10 07:24:46;;;;;;;40.77;8.03;;;;;;;-145.18;100.00;46719.00;6155551;23;19997;-80
2023/01/10 07:27:11;;;;;;;27.10;6.13;;;;;;;-145.18;100.00;46720.94;6180318;23;20426;-80
2023/01/10 07:29:36;;;;;;;39.03;5.20;;;;;;;-145.18;100.00;46722.91;6180628;23;20493;-80
2023/01/10 07:32:02;;;;;;;32.13;5.93;;;;;;;-145.18;100.00;46719.00;6181629;23;20390;-80
2023/01/10 07:34:27;;;;;;;46.77;9.13;;;;;;;-145.18;100.00;46726.81;6181944;23;20006;-80
2023/01/10 07:36:53;;;;;;;31.60;5.27;;;;;;;-145.18;100.00;46722.91;6182254;23;20012;-80
2023/01/10 07:39:18;;;;;;;28.00;5.10;;;;;;;-145.18;100.00;46724.84;6181101;23;20079;-80
2023/01/10 07:41:46;;;;;;;32.33;5.43;;;;;;;-145.18;100.00;46724.84;6181714;23;20015;-79
2023/01/10 07:44:11;;;;;;;31.03;5.83;;;;;;;-145.18;100.00;46720.94;6181415;23;20033;-80
2023/01/10 07:46:37;;;;;;;40.17;5.27;;;;;;;-145.18;100.00;46726.81;6181827;23;20692;-80
2023/01/10 07:49:02;;;;;;;37.57;5.67;;;;;;;-145.18;100.00;46722.91;6155263;23;20024;-80
2023/01/10 07:51:27;;;;;;;35.23;5.90;;;;;;;-145.18;100.00;46724.84;6130766;23;20495;-80
2023/01/10 07:53:53;;;;;;;37.13;6.70;;;;;;;-145.18;100.00;46726.81;6181763;23;20009;-80
2023/01/10 07:56:18;;;;;;;35.07;5.97;;;;;;;-145.18;100.00;46728.75;6181438;23;20020;-80
2023/01/10 07:58:45;;;;;;;23.70;4.57;;;;;;;-145.18;100.00;46724.84;6181352;23;20080;-80
2023/01/10 08:01:10;;;;;;;34.80;5.27;;;;;;;-145.18;100.00;46720.94;6154749;23;20009;-80
2023/01/10 08:03:35;;;;;;;34.17;5.23;;;;;;;-145.18;100.00;46724.84;6152837;23;20254;-81
2023/01/10 08:06:04;;;;;;;38.97;4.83;;;;;;;-145.18;100.00;46726.81;6181483;23;20438;-80
2023/01/10 08:08:29;;;;;;;34.07;5.73;;;;;;;-145.18;100.00;46726.81;6179521;23;20059;-80
2023/01/10 08:10:56;;;;;;;38.83;5.00;;;;;;;-145.18;100.00;46720.94;6181197;23;20612;-80
2023/01/10 08:13:22;;;;;;;28.83;5.07;;;;;;;-145.18;100.00;46722.91;6182383;23;20016;-80
2023/01/10 08:15:50;;;;;;;36.60;5.57;;;;;;;-145.18;100.00;46722.91;6181672;23;20326;-80
2023/01/10 08:18:16;;;;;;;31.83;4.90;;;;;;;-145.18;100.00;46720.94;6182267;23;20272;-79
2023/01/10 08:20:41;;;;;;;50.03;5.50;;;;;;;-145.18;100.00;46717.03;6183069;23;20251;-80
2023/01/10 08:23:07;;;;;;;27.07;5.27;;;;;;;-145.18;100.00;46717.03;6181790;23;20013;-79
2023/01/10 08:25:32;;;;;;;36.10;4.63;;;;;;;-145.18;100.00;46722.91;6183713;23;20435;-80
2023/01/10 08:27:57;;;;;;;30.83;6.20;;;;;;;-145.18;100.00;46717.03;6183869;23;20324;-80
2023/01/10 08:30:23;;;;;;;29.27;5.27;;;;;;;-145.18;100.00;46715.09;6184328;23;20062;-80
2023/01/10 08:32:48;;;;;;;34.13;5.60;;;;;;;-145.18;100.00;46720.94;6183941;23;20020;-81
2023/01/10 08:35:14;;;;;;;28.13;4.87;;;;;;;-145.18;100.00;46717.03;6183727;23;20033;-80
2023/01/10 08:37:39;;;;;;;33.07;5.90;;;;;;;-145.18;100.00;46717.03;6184384;23;20009;-80
2023/01/10 08:40:06;;;;;;;36.90;7.20;;;;;;;-145.18;100.00;46715.09;6183629;23;20092;-80
2023/01/10 08:42:31;;;;;;;29.97;5.30;;;;;;;-145.18;100.00;46711.19;6184375;23;20017;-80
2023/01/10 08:44:57;;;;;;;30.27;5.27;;;;;;;-145.18;100.00;46711.19;6183618;23;20339;-80
2023/01/10 08:47:22;;;;;;;24.47;4.73;;;;;;;-145.18;100.00;46715.09;6184081;23;20497;-80
2023/01/10 08:49:48;;;;;;;25.87;4.23;;;;;;;-145.18;100.00;46715.09;6183914;23;20450;-80
2023/01/10 08:52:14;;;;;;;28.33;5.77;;;;;;;-145.18;100.00;46713.13;6183578;23;20504;-80
2023/01/10 08:54:40;;;;;;;33.43;4.93;;;;;;;-145.18;100.00;46715.09;6183774;23;20227;-80
2023/01/10 08:57:05;;;;;;;33.33;4.43;;;;;;;-145.18;100.00;46709.22;6183818;23;20254;-80
2023/01/10 08:59:30;;;;;;;38.23;6.97;;;;;;;-145.18;100.00;46715.09;6183605;23;20028;-81
2023/01/10 09:01:58;;;;;;;26.23;4.57;;;;;;;-145.18;100.00;46707.28;6183600;23;20009;-80
2023/01/10 09:04:25;;;;;;;25.30;4.20;;;;;;;-145.18;100.00;46715.09;6159247;23;20045;-80
2023/01/10 09:06:50;;;;;;;30.67;5.10;;;;;;;-145.18;100.00;46709.22;6154295;23;20641;-80
2023/01/10 09:09:16;;;;;;;31.87;4.20;;;;;;;-145.18;100.00;46711.19;6153286;23;20259;-80
2023/01/10 09:11:41;;;;;;;41.33;5.20;;;;;;;-145.18;100.00;46709.22;6154303;23;20088;-79
2023/01/10 09:14:06;;;;;;;26.70;4.30;;;;;;;-145.18;100.00;46707.28;6151187;23;20033;-80
2023/01/10 09:16:32;;;;;;;32.73;4.17;;;;;;;-145.18;100.00;46707.28;6152998;23;20006;-80
2023/01/10 09:18:57;;;;;;;32.50;4.63;;;;;;;-145.18;100.00;46711.19;6153072;23;20005;-80
2023/01/10 09:21:23;;;;;;;25.03;4.33;;;;;;;-145.18;100.00;46711.19;6153849;23;20006;-80
2023/01/10 09:23:48;;;;;;;31.40;4.30;;;;;;;-145.18;100.00;46707.28;6153262;23;20072;-80
2023/01/10 09:26:14;;;;;;;31.73;4.57;;;;;;;-145.18;100.00;46709.22;6153931;23;20040;-80
2023/01/10 09:28:39;;;;;;;30.10;5.83;;;;;;;-145.18;100.00;46707.28;6153717;23;20113;-80
2023/01/10 09:31:07;;;;;;;30.77;5.00;;;;;;;-145.18;100.00;46703.38;6153861;23;20442;-81
2023/01/10 09:33:33;;;;;;;23.00;4.47;;;;;;;-145.18;100.00;46701.41;6152878;23;20008;-81
2023/01/10 09:35:59;;;;;;;27.00;3.23;;;;;;;-145.18;100.00;46697.50;6153384;23;20243;-81
2023/01/10 09:38:24;;;;;;;26.00;4.43;;;;;;;-145.18;100.00;46693.59;6151716;23;20016;-81
2023/01/10 09:41:27;;;;;;;28.80;4.13;;;;;;;-145.18;100.00;46695.56;6153813;23;20009;-81
2023/01/10 09:44:14;;;;;;;27.17;4.00;;;;;;;-145.18;100.00;46691.66;6152786;23;20002;-81
2023/01/10 09:47:09;;;;;;;36.03;4.93;;;;;;;-145.18;100.00;46685.78;6153285;23;20219;-81
2023/01/10 09:50:04;;;;;;;22.33;3.83;;;;;;;-145.18;100.00;46681.88;6152917;23;20231;-81
2023/01/10 09:52:38;;;;;;;29.17;4.20;;;;;;;-145.18;100.00;46676.03;6143214;23;20235;-81
2023/01/10 09:55:24;;;;;;;32.37;4.30;;;;;;;-145.18;100.00;46672.13;6153050;23;20235;-81
2023/01/10 09:57:53;;;;;;;32.60;5.72;;;;;;;-145.18;100.00;46670.16;6152845;23;20621;-82
2023/01/10 10:00:23;;;;;;;34.07;3.90;;;;;;;-145.18;100.00;46670.16;6152503;23;20017;-82
2023/01/10 10:02:52;;;;;;;25.57;4.77;;;;;;;-145.18;100.00;46668.22;6153223;23;20252;-81
2023/01/10 10:05:24;;;;;;;35.73;4.37;;;;;;;-145.18;100.00;46666.25;6152479;23;20683;-81
2023/01/10 10:07:55;;;;;;;28.83;4.40;;;;;;;-145.18;100.00;46660.41;6153485;23;20238;-82
2023/01/10 10:10:24;;;;;;;26.33;5.40;;;;;;;-145.18;100.00;46656.50;6153323;23;20626;-81
2023/01/10 10:12:58;;;;;;;42.73;5.00;;;;;;;-145.18;100.00;46650.63;6153246;23;20235;-81
2023/01/10 10:15:38;;;;;;;26.40;4.07;;;;;;;-145.18;100.00;46644.78;6153122;23;20235;-81
2023/01/10 10:18:18;;;;;;;25.40;3.37;;;;;;;-145.18;100.00;46648.69;6153050;23;20229;-82
2023/01/10 10:21:02;;;;;;;36.90;3.50;;;;;;;-145.18;100.00;46633.06;6152797;23;20255;-82
2023/01/10 10:23:45;;;;;;;22.73;3.27;;;;;;;-145.18;100.00;46629.13;6151345;23;20236;-81
2023/01/10 10:26:23;;;;;;;37.37;4.87;;;;;;;-145.18;100.00;46621.31;6150991;23;20284;-82
2023/01/10 10:29:18;;;;;;;25.27;3.63;;;;;;;-145.18;100.00;46617.41;6152714;23;20236;-82
2023/01/10 10:32:04;;;;;;;34.33;4.55;;;;;;;-145.18;100.00;46613.50;6152958;23;20227;-82
2023/01/10 10:34:36;;;;;;;24.88;4.03;;;;;;;-145.18;100.00;46611.56;6106766;23;20006;-82
2023/01/10 10:37:25;;;;;;;22.43;3.67;;;;;;;-145.18;100.00;46611.56;6152776;23;20005;-82
2023/01/10 10:39:55;;;;;;;34.67;4.63;;;;;;;-145.18;100.00;46607.66;6152078;23;20779;-82
2023/01/10 10:42:27;;;;;;;35.73;4.67;;;;;;;-145.18;100.00;46601.78;6152745;23;20302;-82
2023/01/10 10:44:58;;;;;;;26.27;4.10;;;;;;;-145.18;100.00;46603.75;6152419;23;20256;-82
2023/01/10 10:47:31;;;;;;;25.10;3.67;;;;;;;-145.18;100.00;46607.66;6151193;23;20243;-82
2023/01/10 10:49:59;;;;;;;25.30;4.00;;;;;;;-145.18;100.00;46603.75;6154707;23;20239;-82
2023/01/10 10:52:30;;;;;;;22.77;3.73;;;;;;;-145.18;100.00;46601.78;6151290;23;20318;-82
2023/01/10 10:54:57;;;;;;;23.03;4.23;;;;;;;-145.18;100.00;46599.84;6150573;23;20681;-82
2023/01/10 10:57:26;;;;;;;34.87;5.77;;;;;;;-145.18;100.00;46601.78;6150827;23;20232;-83
2023/01/10 10:59:51;;;;;;;37.20;5.60;;;;;;;-145.18;100.00;46601.78;6150541;23;20262;-82
2023/01/10 11:02:29;;;;;;;31.57;4.10;;;;;;;-145.18;100.00;46601.78;6152594;23;20240;-82
2023/01/10 11:05:06;;;;;;;31.67;4.23;;;;;;;-145.18;100.00;46609.59;6152101;23;20013;-82
2023/01/10 11:07:35;;;;;;;21.00;3.93;;;;;;;-145.18;100.00;46601.78;6150284;23;20246;-83
2023/01/10 11:12:49;;;;;;;36.47;4.90;;;;;;;-145.18;100.00;46597.88;6152550;23;20239;-82
2023/01/10 11:15:36;;;;;;;33.87;4.93;;;;;;;-145.18;100.00;46599.84;6151210;23;20224;-82
2023/01/10 11:18:09;;;;;;;28.47;4.17;;;;;;;-145.18;100.00;46601.78;6151304;23;20231;-82
2023/01/10 11:20:35;;;;;;;29.00;4.07;;;;;;;-145.18;100.00;46607.66;6151870;23;20712;-82
2023/01/10 11:23:02;;;;;;;22.10;4.10;;;;;;;-145.18;100.00;46603.75;6151745;23;20728;-83
2023/01/10 11:25:27;;;;;;;34.60;4.93;;;;;;;-145.18;100.00;46601.78;6151607;23;20231;-81